createdAt,value
2023-01-08T00:27:19.691Z,0
2023-01-08T00:57:23.664Z,0
2023-01-08T01:27:28.557Z,0
2023-01-08T01:57:32.513Z,0
2023-01-08T02:27:35.476Z,0
2023-01-08T02:57:37.562Z,0
2023-01-08T03:27:41.438Z,0
2023-01-08T03:57:43.501Z,0
2023-01-08T04:27:49.364Z,0
2023-01-08T04:57:50.437Z,0
2023-01-08T05:27:54.396Z,0
2023-01-08T05:57:55.939Z,0.08
2023-01-08T06:27:58.894Z,0.16
2023-01-08T06:58:07.904Z,0.16
2023-01-08T07:28:08.821Z,0.24
2023-01-08T07:58:11.816Z,0.32
2023-01-08T08:28:21.806Z,0.32
2023-01-08T08:58:23.818Z,0.4
2023-01-08T09:28:26.836Z,0.4
2023-01-08T09:58:29.821Z,0
2023-01-08T10:28:30.808Z,0
2023-01-08T10:58:32.742Z,0
2023-01-08T11:28:32.826Z,0
2023-01-08T11:58:38.742Z,0
2023-01-08T12:28:49.738Z,0
2023-01-08T12:58:53.698Z,0
2023-01-08T13:29:04.674Z,0
2023-01-08T13:59:06.656Z,0
2023-01-08T14:29:10.815Z,0
2023-01-08T14:59:21.735Z,0
2023-01-08T15:29:27.788Z,0
2023-01-08T15:59:32.703Z,0
2023-01-08T16:29:42.702Z,0
2023-01-08T16:59:45.815Z,0
2023-01-08T17:29:49.760Z,0
2023-01-08T17:59:58.228Z,0
2023-01-08T18:30:03.069Z,0
2023-01-08T19:00:06.073Z,0.08
2023-01-08T19:30:10.113Z,0.08
2023-01-08T20:00:13.080Z,0.24
2023-01-08T20:30:15.241Z,0.32
2023-01-08T21:00:22.055Z,0.32
2023-01-08T21:30:29.000Z,0.4
2023-01-08T22:00:34.960Z,0.48
2023-01-08T22:30:36.068Z,0.48
2023-01-08T23:00:41.003Z,0.56
2023-01-08T23:30:44.922Z,0.56
